createdAt,value
2019-03-29T00:00:32.121Z,4.70
2019-03-29T00:01:30.627Z,4.67
2019-03-29T00:02:30.660Z,4.67
2019-03-29T00:03:30.578Z,4.67
2019-03-29T00:04:30.615Z,4.64
2019-03-29T00:05:30.581Z,4.61
2019-03-29T00:06:30.578Z,4.61
2019-03-29T00:07:39.510Z,4.61
2019-03-29T00:08:31.543Z,4.60
2019-03-29T00:09:30.515Z,4.60
2019-03-29T00:10:30.550Z,4.58
2019-03-29T00:11:30.508Z,4.61
2019-03-29T00:12:31.072Z,4.58
2019-03-29T00:13:30.513Z,4.57
2019-03-29T00:14:30.488Z,4.56
2019-03-29T00:15:30.481Z,4.56
2019-03-29T00:16:30.455Z,4.56
2019-03-29T00:17:30.437Z,4.57
2019-03-29T00:18:30.455Z,4.58
2019-03-29T00:19:30.422Z,4.61
2019-03-29T00:20:30.415Z,4.61
2019-03-29T00:21:30.387Z,4.64
2019-03-29T00:22:30.995Z,4.63
2019-03-29T00:23:30.377Z,4.63
2019-03-29T00:24:30.364Z,4.61
2019-03-29T00:25:30.357Z,4.61
2019-03-29T00:26:30.336Z,4.58
2019-03-29T00:27:30.333Z,4.57
2019-03-29T00:28:30.340Z,4.56
2019-03-29T00:29:30.329Z,4.56
2019-03-29T00:30:30.313Z,4.56
2019-03-29T00:31:30.291Z,4.58
2019-03-29T00:32:30.268Z,4.57
2019-03-29T00:33:30.308Z,4.53
2019-03-29T00:34:30.261Z,4.49
2019-03-29T00:35:30.273Z,4.48
2019-03-29T00:36:30.245Z,4.43
2019-03-29T00:37:30.229Z,4.42
2019-03-29T00:38:30.262Z,4.40
2019-03-29T00:39:30.206Z,4.40
2019-03-29T00:40:30.208Z,4.42
2019-03-29T00:41:30.193Z,4.40
2019-03-29T00:42:30.170Z,4.40
2019-03-29T00:43:30.189Z,4.42
2019-03-29T00:44:30.151Z,4.43
2019-03-29T00:45:30.143Z,4.42
2019-03-29T00:46:30.132Z,4.39
2019-03-29T00:47:30.263Z,4.38
2019-03-29T00:48:30.143Z,4.40
2019-03-29T00:49:30.118Z,4.42
2019-03-29T00:50:30.084Z,4.42
2019-03-29T00:51:30.060Z,4.39
2019-03-29T00:52:30.065Z,4.39
2019-03-29T00:53:30.066Z,4.40
2019-03-29T00:54:30.044Z,4.38
2019-03-29T00:55:30.039Z,4.39
2019-03-29T00:56:30.063Z,4.39
2019-03-29T00:57:30.307Z,4.39
2019-03-29T00:58:30.044Z,4.38
2019-03-29T00:59:29.989Z,4.39
2019-03-29T01:00:31.602Z,4.38
2019-03-29T01:01:29.999Z,4.34
2019-03-29T01:02:29.978Z,4.32
2019-03-29T01:03:29.964Z,4.28
2019-03-29T01:04:29.935Z,4.28
2019-03-29T01:05:29.918Z,4.32
2019-03-29T01:06:29.896Z,4.31
2019-03-29T01:07:30.219Z,4.30
2019-03-29T01:08:29.910Z,4.28
2019-03-29T01:09:30.252Z,4.28
2019-03-29T01:10:29.851Z,4.30
2019-03-29T01:11:29.858Z,4.28
2019-03-29T01:12:29.846Z,4.24
2019-03-29T01:13:29.840Z,4.22
2019-03-29T01:14:29.818Z,4.22
2019-03-29T01:15:29.796Z,4.21
2019-03-29T01:16:29.796Z,4.22
2019-03-29T01:17:29.801Z,4.22
2019-03-29T01:18:29.790Z,4.22
2019-03-29T01:19:29.904Z,4.24
2019-03-29T01:20:29.749Z,4.24
2019-03-29T01:21:29.746Z,4.21
2019-03-29T01:22:29.747Z,4.20
2019-03-29T01:23:29.747Z,4.18
2019-03-29T01:24:29.733Z,4.16
2019-03-29T01:25:29.704Z,4.12
2019-03-29T01:26:29.695Z,4.10
2019-03-29T01:27:29.690Z,4.09
2019-03-29T01:28:29.685Z,4.10
2019-03-29T01:29:30.349Z,4.13
2019-03-29T01:30:29.661Z,4.18
2019-03-29T01:31:29.631Z,4.16
2019-03-29T01:32:29.610Z,4.13
2019-03-29T01:33:29.641Z,4.14
2019-03-29T01:34:29.627Z,4.14
2019-03-29T01:35:29.600Z,4.13
2019-03-29T01:36:29.589Z,4.12
2019-03-29T01:37:29.575Z,4.10
2019-03-29T01:38:29.590Z,4.10
2019-03-29T01:39:29.558Z,4.12
2019-03-29T01:40:29.541Z,4.10
2019-03-29T01:41:29.536Z,4.12
2019-03-29T01:42:29.522Z,4.12
2019-03-29T01:43:29.554Z,4.12
2019-03-29T01:44:29.506Z,4.10
2019-03-29T01:45:29.478Z,4.09
2019-03-29T01:46:29.473Z,4.07
2019-03-29T01:47:30.036Z,4.07
2019-03-29T01:48:29.482Z,4.07
2019-03-29T01:49:29.435Z,4.09
2019-03-29T01:50:29.416Z,4.04
2019-03-29T01:51:29.403Z,4.04
2019-03-29T01:52:31.598Z,4.00
2019-03-29T01:53:29.427Z,4.03
2019-03-29T01:54:29.406Z,4.02
2019-03-29T01:55:29.376Z,3.99
2019-03-29T01:56:29.363Z,3.96
2019-03-29T01:57:29.355Z,3.95
2019-03-29T01:58:29.351Z,3.95
2019-03-29T01:59:29.330Z,3.94
2019-03-29T02:00:29.343Z,3.94
2019-03-29T02:01:29.376Z,3.91
2019-03-29T02:02:29.319Z,3.92
2019-03-29T02:03:29.302Z,3.89
2019-03-29T02:04:29.258Z,3.86
2019-03-29T02:05:29.269Z,3.86
2019-03-29T02:06:29.258Z,3.84
2019-03-29T02:07:29.237Z,3.77
2019-03-29T02:08:35.623Z,3.70
2019-03-29T02:09:30.275Z,3.64
2019-03-29T02:10:29.221Z,3.56
2019-03-29T02:11:29.200Z,3.50
2019-03-29T02:12:29.183Z,3.41
2019-03-29T02:13:29.204Z,3.36
2019-03-29T02:14:29.161Z,3.34
2019-03-29T02:15:29.159Z,3.30
2019-03-29T02:16:29.275Z,3.27
2019-03-29T02:17:29.127Z,3.26
2019-03-29T02:18:29.143Z,3.24
2019-03-29T02:19:29.109Z,3.26
2019-03-29T02:20:29.107Z,3.24
2019-03-29T02:21:29.095Z,3.27
2019-03-29T02:22:29.068Z,3.30
2019-03-29T02:23:29.211Z,3.34
2019-03-29T02:24:29.088Z,3.41
2019-03-29T02:25:29.030Z,3.46
2019-03-29T02:26:29.017Z,3.46
2019-03-29T02:27:29.019Z,3.49
2019-03-29T02:28:29.030Z,3.53
2019-03-29T02:29:29.011Z,3.53
2019-03-29T02:30:28.982Z,3.53
2019-03-29T02:31:29.294Z,3.58
2019-03-29T02:32:28.983Z,3.58
2019-03-29T02:33:29.001Z,3.59
2019-03-29T02:34:28.954Z,3.58
2019-03-29T02:35:28.933Z,3.59
2019-03-29T02:36:28.936Z,3.55
2019-03-29T02:37:29.617Z,3.58
2019-03-29T02:38:28.936Z,3.58
2019-03-29T02:39:28.885Z,3.59
2019-03-29T02:40:28.871Z,3.59
2019-03-29T02:41:28.878Z,3.58
2019-03-29T02:42:28.869Z,3.58
2019-03-29T02:43:28.866Z,3.56
2019-03-29T02:44:28.823Z,3.58
2019-03-29T02:45:30.564Z,3.59
2019-03-29T02:46:28.809Z,3.61
2019-03-29T02:47:28.799Z,3.61
2019-03-29T02:48:28.817Z,3.61
2019-03-29T02:49:28.782Z,3.61
2019-03-29T02:50:28.771Z,3.61
2019-03-29T02:51:28.773Z,3.59
2019-03-29T02:52:28.752Z,3.58
2019-03-29T02:53:28.788Z,3.59
2019-03-29T02:54:28.704Z,3.58
2019-03-29T02:55:28.692Z,3.58
2019-03-29T02:56:28.696Z,3.58
2019-03-29T02:57:28.702Z,3.56
2019-03-29T02:58:28.710Z,3.53
2019-03-29T02:59:28.687Z,3.52
2019-03-29T03:00:28.660Z,3.50
2019-03-29T03:01:28.681Z,3.50
2019-03-29T03:02:28.640Z,3.53
2019-03-29T03:03:28.655Z,3.53
2019-03-29T03:04:28.610Z,3.52
2019-03-29T03:05:28.597Z,3.55
2019-03-29T03:06:28.586Z,3.56
2019-03-29T03:07:28.579Z,3.61
2019-03-29T03:08:32.677Z,3.58
2019-03-29T03:09:28.549Z,3.59
2019-03-29T03:10:28.539Z,3.59
2019-03-29T03:11:28.551Z,3.56
2019-03-29T03:12:28.516Z,3.56
2019-03-29T03:13:28.522Z,3.56
2019-03-29T03:14:28.504Z,3.55
2019-03-29T03:15:28.501Z,3.53
2019-03-29T03:16:28.474Z,3.49
2019-03-29T03:17:28.536Z,3.46
2019-03-29T03:18:28.484Z,3.45
2019-03-29T03:19:28.456Z,3.46
2019-03-29T03:20:28.445Z,3.45
2019-03-29T03:21:28.427Z,3.41
2019-03-29T03:22:28.435Z,3.43
2019-03-29T03:23:28.399Z,3.40
2019-03-29T03:24:28.392Z,3.40
2019-03-29T03:25:28.381Z,3.40
2019-03-29T03:26:28.379Z,3.41
2019-03-29T03:27:28.373Z,3.40
2019-03-29T03:28:28.349Z,3.37
2019-03-29T03:29:28.333Z,3.41
2019-03-29T03:30:28.361Z,3.41
2019-03-29T03:31:28.323Z,3.43
2019-03-29T03:32:28.335Z,3.45
2019-03-29T03:33:28.290Z,3.48
2019-03-29T03:34:28.273Z,3.48
2019-03-29T03:35:28.264Z,3.49
2019-03-29T03:36:28.274Z,3.52
2019-03-29T03:37:28.282Z,3.53
2019-03-29T03:38:28.774Z,3.52
2019-03-29T03:39:32.227Z,3.52
2019-03-29T03:40:28.216Z,3.50
2019-03-29T03:41:28.199Z,3.49
2019-03-29T03:42:28.225Z,3.50
2019-03-29T03:43:28.180Z,3.50
2019-03-29T03:44:28.167Z,3.52
2019-03-29T03:45:28.151Z,3.52
2019-03-29T03:46:28.147Z,3.56
2019-03-29T03:47:28.149Z,3.56
2019-03-29T03:48:28.119Z,3.59
2019-03-29T03:49:28.119Z,3.64
2019-03-29T03:50:28.135Z,3.66
2019-03-29T03:51:28.099Z,3.64
2019-03-29T03:52:28.077Z,3.63
2019-03-29T03:53:28.124Z,3.63
2019-03-29T03:54:28.059Z,3.59
2019-03-29T03:55:28.037Z,3.56
2019-03-29T03:56:28.051Z,3.58
2019-03-29T03:57:28.018Z,3.53
2019-03-29T03:58:28.046Z,3.53
2019-03-29T03:59:28.001Z,3.53
2019-03-29T04:00:27.997Z,3.50
2019-03-29T04:01:27.987Z,3.50
2019-03-29T04:02:27.994Z,3.50
2019-03-29T04:03:28.024Z,3.50
2019-03-29T04:04:27.947Z,3.49
2019-03-29T04:05:27.963Z,3.48
2019-03-29T04:06:27.917Z,3.49
2019-03-29T04:07:27.927Z,3.48
2019-03-29T04:08:27.958Z,3.46
2019-03-29T04:09:27.917Z,3.43
2019-03-29T04:10:27.905Z,3.41
2019-03-29T04:11:27.891Z,3.43
2019-03-29T04:12:27.867Z,3.43
2019-03-29T04:13:27.884Z,3.45
2019-03-29T04:14:27.846Z,3.41
2019-03-29T04:15:27.818Z,3.40
2019-03-29T04:16:27.816Z,3.37
2019-03-29T04:17:27.812Z,3.36
2019-03-29T04:18:27.838Z,3.34
2019-03-29T04:19:27.792Z,3.30
2019-03-29T04:20:27.787Z,3.29
2019-03-29T04:21:27.769Z,3.27
2019-03-29T04:22:27.754Z,3.27
2019-03-29T04:23:27.803Z,3.24
2019-03-29T04:24:27.733Z,3.22
2019-03-29T04:25:27.703Z,3.19
2019-03-29T04:26:27.706Z,3.18
2019-03-29T04:27:27.685Z,3.15
2019-03-29T04:28:27.711Z,3.12
2019-03-29T04:29:27.694Z,3.12
2019-03-29T04:30:27.670Z,3.13
2019-03-29T04:31:27.651Z,3.15
2019-03-29T04:32:27.643Z,3.15
2019-03-29T04:33:27.648Z,3.18
2019-03-29T04:34:27.618Z,3.18
2019-03-29T04:35:27.611Z,3.19
2019-03-29T04:36:27.598Z,3.18
2019-03-29T04:37:27.585Z,3.16
2019-03-29T04:38:27.610Z,3.18
2019-03-29T04:39:27.563Z,3.22
2019-03-29T04:40:27.565Z,3.27
2019-03-29T04:41:27.538Z,3.26
2019-03-29T04:42:27.537Z,3.26
2019-03-29T04:43:27.542Z,3.27
2019-03-29T04:44:27.519Z,3.29
2019-03-29T04:45:27.512Z,3.27
2019-03-29T04:46:27.492Z,3.27
2019-03-29T04:47:27.484Z,3.24
2019-03-29T04:48:27.526Z,3.24
2019-03-29T04:49:27.471Z,3.26
2019-03-29T04:50:27.444Z,3.24
2019-03-29T04:51:27.452Z,3.24
2019-03-29T04:52:27.446Z,3.24
2019-03-29T04:53:27.417Z,3.22
2019-03-29T04:54:27.394Z,3.24
2019-03-29T04:55:27.395Z,3.26
2019-03-29T04:56:27.389Z,3.26
2019-03-29T04:57:27.383Z,3.27
2019-03-29T04:58:27.349Z,3.26
2019-03-29T04:59:27.343Z,3.22
2019-03-29T05:00:27.323Z,3.22
2019-03-29T05:01:27.328Z,3.22
2019-03-29T05:02:27.347Z,3.24
2019-03-29T05:03:27.299Z,3.26
2019-03-29T05:04:27.316Z,3.22
2019-03-29T05:05:27.307Z,3.22
2019-03-29T05:06:27.275Z,3.22
2019-03-29T05:07:27.273Z,3.22
2019-03-29T05:08:27.254Z,3.21
2019-03-29T05:09:27.250Z,3.19
2019-03-29T05:10:27.259Z,3.19
2019-03-29T05:11:27.224Z,3.19
2019-03-29T05:12:27.221Z,3.22
2019-03-29T05:13:27.225Z,3.22
2019-03-29T05:14:27.203Z,3.24
2019-03-29T05:15:27.162Z,3.24
2019-03-29T05:16:27.167Z,3.26
2019-03-29T05:17:27.154Z,3.22
2019-03-29T05:18:27.152Z,3.21
2019-03-29T05:19:27.130Z,3.19
2019-03-29T05:20:27.124Z,3.22
2019-03-29T05:21:27.098Z,3.19
2019-03-29T05:22:27.104Z,3.24
2019-03-29T05:23:27.078Z,3.30
2019-03-29T05:24:27.079Z,3.31
2019-03-29T05:25:27.069Z,3.31
2019-03-29T05:26:27.064Z,3.31
2019-03-29T05:27:27.088Z,3.31
2019-03-29T05:28:27.034Z,3.33
2019-03-29T05:29:27.029Z,3.36
2019-03-29T05:30:27.000Z,3.37
2019-03-29T05:31:27.001Z,3.40
2019-03-29T05:32:27.019Z,3.37
2019-03-29T05:33:26.969Z,3.36
2019-03-29T05:34:26.988Z,3.36
2019-03-29T05:35:26.976Z,3.33
2019-03-29T05:36:26.934Z,3.34
2019-03-29T05:37:26.965Z,3.36
2019-03-29T05:38:26.933Z,3.36
2019-03-29T05:39:26.905Z,3.36
2019-03-29T05:40:34.975Z,3.40
2019-03-29T05:41:27.901Z,3.40
2019-03-29T05:42:26.914Z,3.40
2019-03-29T05:43:26.869Z,3.37
2019-03-29T05:44:26.843Z,3.43
2019-03-29T05:45:26.832Z,3.48
2019-03-29T05:46:26.832Z,3.52
2019-03-29T05:47:26.837Z,3.66
2019-03-29T05:48:26.821Z,3.85
2019-03-29T05:49:26.797Z,4.20
2019-03-29T05:50:26.778Z,4.68
2019-03-29T05:51:26.773Z,5.16
2019-03-29T05:52:26.797Z,5.54
2019-03-29T05:53:26.753Z,5.99
2019-03-29T05:54:26.759Z,6.32
2019-03-29T05:55:32.599Z,6.68
2019-03-29T05:56:27.722Z,7.03
2019-03-29T05:57:26.761Z,7.31
2019-03-29T05:58:26.710Z,7.58
2019-03-29T05:59:26.682Z,7.83
2019-03-29T06:00:26.681Z,8.13
2019-03-29T06:01:26.660Z,8.75
2019-03-29T06:02:26.685Z,9.39
2019-03-29T06:03:26.642Z,9.88
2019-03-29T06:04:26.635Z,10.33
2019-03-29T06:05:26.623Z,10.82
2019-03-29T06:06:26.616Z,11.31
2019-03-29T06:07:26.638Z,11.74
2019-03-29T06:08:26.588Z,12.05
2019-03-29T06:09:26.588Z,12.36
2019-03-29T06:10:26.568Z,12.69
2019-03-29T06:11:26.556Z,12.98
2019-03-29T06:12:26.652Z,13.26
2019-03-29T06:13:26.577Z,13.40
2019-03-29T06:14:26.549Z,13.57
2019-03-29T06:15:26.517Z,13.76
2019-03-29T06:16:38.356Z,13.91
2019-03-29T06:17:27.516Z,14.15
2019-03-29T06:18:26.490Z,14.44
2019-03-29T06:19:26.479Z,14.68
2019-03-29T06:20:26.468Z,14.90
2019-03-29T06:21:26.452Z,15.07
2019-03-29T06:22:26.437Z,15.17
2019-03-29T06:23:26.478Z,15.29
2019-03-29T06:24:26.423Z,15.43
2019-03-29T06:25:26.398Z,15.51
2019-03-29T06:26:26.421Z,15.73
2019-03-29T06:27:26.392Z,15.78
2019-03-29T06:28:29.631Z,15.69
2019-03-29T06:29:26.388Z,15.57
2019-03-29T06:30:26.372Z,15.50
2019-03-29T06:31:26.337Z,15.83
2019-03-29T06:32:26.349Z,15.99
2019-03-29T06:33:26.339Z,15.88
2019-03-29T06:34:26.304Z,16.08
2019-03-29T06:35:26.305Z,16.24
2019-03-29T06:36:26.301Z,16.37
2019-03-29T06:37:26.302Z,16.61
2019-03-29T06:38:26.305Z,16.79
2019-03-29T06:39:26.257Z,16.95
2019-03-29T06:40:26.257Z,17.09
2019-03-29T06:41:26.255Z,17.32
2019-03-29T06:42:26.224Z,17.46
2019-03-29T06:43:26.258Z,17.52
2019-03-29T06:44:26.224Z,17.76
2019-03-29T06:45:26.211Z,18.00
2019-03-29T06:46:26.198Z,18.21
2019-03-29T06:47:26.186Z,18.43
2019-03-29T06:48:27.139Z,18.52
2019-03-29T06:49:26.185Z,18.73
2019-03-29T06:50:26.570Z,18.78
2019-03-29T06:51:26.440Z,18.85
2019-03-29T06:52:26.456Z,19.16
2019-03-29T06:53:26.156Z,19.48
2019-03-29T06:54:26.214Z,19.66
2019-03-29T06:55:26.404Z,19.77
2019-03-29T06:56:26.414Z,19.92
2019-03-29T06:57:26.541Z,19.99
2019-03-29T06:58:26.144Z,20.12
2019-03-29T06:59:26.106Z,19.82
2019-03-29T07:00:26.163Z,19.44
2019-03-29T07:01:26.050Z,19.66
2019-03-29T07:02:26.740Z,19.92
2019-03-29T07:03:26.111Z,20.21
2019-03-29T07:04:26.011Z,20.53
2019-03-29T07:05:26.502Z,20.48
2019-03-29T07:06:26.065Z,20.71
2019-03-29T07:07:26.479Z,20.71
2019-03-29T07:08:27.114Z,20.52
2019-03-29T07:09:26.367Z,20.27
2019-03-29T07:10:26.001Z,20.21
2019-03-29T07:11:25.943Z,20.36
2019-03-29T07:12:25.930Z,20.24
2019-03-29T07:13:25.931Z,20.70
2019-03-29T07:14:25.969Z,21.07
2019-03-29T07:15:25.894Z,21.11
2019-03-29T07:16:25.981Z,21.30
2019-03-29T07:17:26.237Z,20.86
2019-03-29T07:18:25.861Z,20.92
2019-03-29T07:19:25.899Z,20.93
2019-03-29T07:20:25.855Z,21.15
2019-03-29T07:21:25.850Z,21.43
2019-03-29T07:22:25.854Z,21.26
2019-03-29T07:23:25.845Z,21.35
2019-03-29T07:24:25.837Z,21.33
2019-03-29T07:25:25.822Z,21.26
2019-03-29T07:26:25.836Z,20.88
2019-03-29T07:27:25.940Z,21.00
2019-03-29T07:28:25.796Z,21.19
2019-03-29T07:29:25.830Z,21.48
2019-03-29T07:30:25.772Z,21.58
2019-03-29T07:31:25.745Z,21.45
2019-03-29T07:32:25.757Z,21.58
2019-03-29T07:33:25.746Z,22.00
2019-03-29T07:34:25.750Z,22.06
2019-03-29T07:35:25.700Z,22.07
2019-03-29T07:36:25.699Z,22.22
2019-03-29T07:37:25.676Z,22.38
2019-03-29T07:38:25.716Z,22.26
2019-03-29T07:39:25.704Z,22.14
2019-03-29T07:40:25.705Z,22.34
2019-03-29T07:41:32.136Z,22.14
2019-03-29T07:42:26.643Z,21.96
2019-03-29T07:43:25.626Z,21.14
2019-03-29T07:44:25.696Z,21.20
2019-03-29T07:45:25.616Z,21.26
2019-03-29T07:46:25.615Z,20.90
2019-03-29T07:47:25.603Z,21.11
2019-03-29T07:48:25.583Z,21.53
2019-03-29T07:49:25.621Z,21.80
2019-03-29T07:50:25.581Z,22.33
2019-03-29T07:51:25.552Z,22.04
2019-03-29T07:52:25.569Z,22.53
2019-03-29T07:53:25.530Z,23.01
2019-03-29T07:54:25.600Z,23.48
2019-03-29T07:55:25.537Z,23.69
2019-03-29T07:56:25.507Z,23.82
2019-03-29T07:57:25.495Z,23.89
2019-03-29T07:58:25.507Z,23.70
2019-03-29T07:59:25.521Z,22.41
2019-03-29T08:00:25.495Z,22.53
2019-03-29T08:01:25.453Z,22.76
2019-03-29T08:02:25.504Z,23.32
2019-03-29T08:03:25.446Z,23.55
2019-03-29T08:04:25.463Z,23.81
2019-03-29T08:05:25.455Z,23.86
2019-03-29T08:06:25.419Z,24.21
2019-03-29T08:07:27.474Z,24.14
2019-03-29T08:08:32.038Z,24.13
2019-03-29T08:09:27.426Z,22.88
2019-03-29T08:10:30.211Z,23.04
2019-03-29T08:11:27.638Z,23.26
2019-03-29T08:12:25.397Z,23.34
2019-03-29T08:13:25.359Z,23.02
2019-03-29T08:14:25.415Z,23.20
2019-03-29T08:15:25.336Z,22.95
2019-03-29T08:16:25.335Z,22.83
2019-03-29T08:17:25.340Z,22.43
2019-03-29T08:18:25.295Z,22.55
2019-03-29T08:19:25.318Z,22.81
2019-03-29T08:20:40.299Z,23.07
2019-03-29T08:21:26.271Z,22.96
2019-03-29T08:22:25.294Z,23.11
2019-03-29T08:23:28.537Z,23.36
2019-03-29T08:24:25.254Z,23.45
2019-03-29T08:25:25.279Z,23.06
2019-03-29T08:26:25.239Z,21.41
2019-03-29T08:27:25.208Z,20.46
2019-03-29T08:28:25.231Z,20.75
2019-03-29T08:29:25.209Z,21.37
2019-03-29T08:30:25.239Z,21.33
2019-03-29T08:31:25.190Z,21.85
2019-03-29T08:32:25.188Z,21.47
2019-03-29T08:33:25.174Z,21.77
2019-03-29T08:34:25.198Z,22.04
2019-03-29T08:35:25.235Z,22.43
2019-03-29T08:36:25.157Z,22.52
2019-03-29T08:37:25.143Z,21.89
2019-03-29T08:38:25.121Z,21.84
2019-03-29T08:39:28.276Z,22.19
2019-03-29T08:40:25.107Z,22.36
2019-03-29T08:41:25.091Z,22.04
2019-03-29T08:42:25.079Z,21.30
2019-03-29T08:43:25.100Z,21.38
2019-03-29T08:44:25.038Z,21.40
2019-03-29T08:45:25.073Z,21.81
2019-03-29T08:46:25.025Z,22.04
2019-03-29T08:47:25.045Z,21.37
2019-03-29T08:48:25.024Z,21.00
2019-03-29T08:49:25.000Z,20.37
2019-03-29T08:50:25.023Z,21.08
2019-03-29T08:51:24.991Z,20.77
2019-03-29T08:52:25.033Z,21.56
2019-03-29T08:53:27.435Z,21.35
2019-03-29T08:54:24.942Z,21.00
2019-03-29T08:55:24.978Z,21.03
2019-03-29T08:56:24.951Z,21.17
2019-03-29T08:57:24.951Z,21.62
2019-03-29T08:58:25.000Z,21.03
2019-03-29T08:59:24.920Z,21.72
2019-03-29T09:00:24.935Z,22.01
2019-03-29T09:01:24.888Z,22.03
2019-03-29T09:02:25.338Z,22.59
2019-03-29T09:03:24.880Z,22.26
2019-03-29T09:04:24.903Z,22.06
2019-03-29T09:05:24.909Z,21.99
2019-03-29T09:06:24.915Z,21.77
2019-03-29T09:07:27.914Z,21.94
2019-03-29T09:08:24.813Z,22.31
2019-03-29T09:09:24.826Z,21.77
2019-03-29T09:10:24.842Z,21.72
2019-03-29T09:11:24.806Z,21.48
2019-03-29T09:12:24.814Z,22.10
2019-03-29T09:13:24.763Z,22.26
2019-03-29T09:14:24.760Z,22.44
2019-03-29T09:15:24.809Z,22.55
2019-03-29T09:16:24.733Z,22.55
2019-03-29T09:17:24.754Z,22.89
2019-03-29T09:18:26.067Z,22.63
2019-03-29T09:19:24.722Z,21.54
2019-03-29T09:20:24.783Z,22.03
2019-03-29T09:21:24.697Z,22.40
2019-03-29T09:22:24.695Z,22.34
2019-03-29T09:23:24.689Z,22.08
2019-03-29T09:24:24.615Z,21.85
2019-03-29T09:25:24.604Z,22.04
2019-03-29T09:26:24.698Z,22.16
2019-03-29T09:27:24.654Z,22.51
2019-03-29T09:28:24.640Z,22.10
2019-03-29T09:29:24.634Z,20.90
2019-03-29T09:30:24.589Z,20.30
2019-03-29T09:31:24.652Z,20.48
2019-03-29T09:32:24.577Z,21.15
2019-03-29T09:33:24.591Z,21.30
2019-03-29T09:34:24.535Z,20.98
2019-03-29T09:35:24.557Z,20.89
2019-03-29T09:36:24.569Z,20.96
2019-03-29T09:37:24.503Z,21.35
2019-03-29T09:38:24.523Z,21.97
2019-03-29T09:39:24.497Z,22.19
2019-03-29T09:40:24.489Z,21.78
2019-03-29T09:41:24.507Z,21.81
2019-03-29T09:42:29.446Z,21.83
2019-03-29T09:43:26.722Z,21.48
2019-03-29T09:44:24.456Z,21.70
2019-03-29T09:45:24.436Z,21.85
2019-03-29T09:46:24.474Z,21.83
2019-03-29T09:47:24.383Z,21.89
2019-03-29T09:48:24.428Z,21.81
2019-03-29T09:49:24.413Z,22.07
2019-03-29T09:50:24.443Z,21.84
2019-03-29T09:51:24.438Z,22.67
2019-03-29T09:52:24.380Z,21.91
2019-03-29T09:53:24.385Z,21.69
2019-03-29T09:54:24.348Z,21.94
2019-03-29T09:55:24.370Z,22.34
2019-03-29T09:56:37.527Z,22.34
2019-03-29T09:57:36.865Z,22.44
2019-03-29T09:58:25.310Z,22.36
2019-03-29T09:59:24.296Z,22.15
2019-03-29T10:00:24.302Z,21.62
2019-03-29T10:01:24.347Z,21.56
2019-03-29T10:02:24.261Z,21.94
2019-03-29T10:03:24.240Z,22.26
2019-03-29T10:04:24.264Z,22.23
2019-03-29T10:05:24.245Z,21.96
2019-03-29T10:06:24.265Z,21.94
2019-03-29T10:07:24.232Z,22.10
2019-03-29T10:08:24.323Z,22.77
2019-03-29T10:09:24.231Z,22.83
2019-03-29T10:10:24.193Z,22.86
2019-03-29T10:11:24.188Z,22.68
2019-03-29T10:12:24.154Z,22.65
2019-03-29T10:13:24.143Z,22.10
2019-03-29T10:14:24.189Z,21.74
2019-03-29T10:15:24.134Z,21.88
2019-03-29T10:16:25.923Z,21.74
2019-03-29T10:17:24.107Z,22.10
2019-03-29T10:18:24.100Z,22.04
2019-03-29T10:19:24.075Z,22.44
2019-03-29T10:20:24.094Z,22.68
2019-03-29T10:21:24.083Z,23.08
2019-03-29T10:22:24.081Z,23.36
2019-03-29T10:23:24.055Z,22.81
2019-03-29T10:24:24.034Z,22.83
2019-03-29T10:25:24.027Z,22.86
2019-03-29T10:26:24.055Z,22.59
2019-03-29T10:27:23.989Z,22.37
2019-03-29T10:28:24.012Z,22.08
2019-03-29T10:29:24.826Z,22.62
2019-03-29T10:30:23.964Z,22.28
2019-03-29T10:31:32.101Z,21.84
2019-03-29T10:32:24.974Z,22.14
2019-03-29T10:33:23.950Z,21.77
2019-03-29T10:34:23.941Z,21.32
2019-03-29T10:35:23.933Z,21.14
2019-03-29T10:36:23.949Z,20.63
2019-03-29T10:37:23.978Z,21.04
2019-03-29T10:38:23.911Z,21.14
2019-03-29T10:39:26.328Z,21.50
2019-03-29T10:40:23.879Z,20.88
2019-03-29T10:41:23.991Z,20.89
2019-03-29T10:42:23.888Z,20.85
2019-03-29T10:43:23.916Z,21.51
2019-03-29T10:44:24.557Z,21.97
2019-03-29T10:45:23.814Z,21.37
2019-03-29T10:46:23.943Z,21.54
2019-03-29T10:47:23.819Z,21.63
2019-03-29T10:48:23.849Z,21.38
2019-03-29T10:49:23.783Z,20.90
2019-03-29T10:50:23.803Z,20.77
2019-03-29T10:51:23.844Z,21.25
2019-03-29T10:52:23.771Z,21.33
2019-03-29T10:53:23.742Z,21.48
2019-03-29T10:54:23.735Z,21.54
2019-03-29T10:55:23.739Z,22.01
2019-03-29T10:56:34.165Z,21.56
2019-03-29T10:57:24.710Z,21.43
2019-03-29T10:58:23.724Z,21.78
2019-03-29T10:59:27.726Z,21.84
2019-03-29T11:00:23.663Z,21.60
2019-03-29T11:01:24.849Z,21.35
2019-03-29T11:02:23.633Z,20.75
2019-03-29T11:03:23.652Z,20.92
2019-03-29T11:04:23.728Z,20.83
2019-03-29T11:05:23.703Z,20.37
2019-03-29T11:06:23.787Z,20.33
2019-03-29T11:07:23.617Z,20.78
2019-03-29T11:08:23.564Z,21.28
2019-03-29T11:09:23.608Z,21.45
2019-03-29T11:10:23.546Z,21.23
2019-03-29T11:11:23.569Z,21.54
2019-03-29T11:12:23.578Z,21.63
2019-03-29T11:13:23.526Z,21.53
2019-03-29T11:14:23.515Z,20.75
2019-03-29T11:15:23.506Z,20.03
2019-03-29T11:16:23.531Z,20.58
2019-03-29T11:17:23.471Z,20.86
2019-03-29T11:18:23.449Z,21.14
2019-03-29T11:19:23.486Z,21.68
2019-03-29T11:20:23.464Z,21.97
2019-03-29T11:21:23.524Z,21.94
2019-03-29T11:22:23.435Z,22.03
2019-03-29T11:23:23.447Z,21.56
2019-03-29T11:24:23.420Z,21.54
2019-03-29T11:25:23.392Z,21.30
2019-03-29T11:26:23.409Z,21.03
2019-03-29T11:27:23.412Z,20.58
2019-03-29T11:28:23.378Z,20.26
2019-03-29T11:29:23.432Z,20.10
2019-03-29T11:30:23.362Z,20.55
2019-03-29T11:31:25.509Z,20.53
2019-03-29T11:32:23.383Z,20.15
2019-03-29T11:33:23.327Z,20.44
2019-03-29T11:34:23.321Z,20.46
2019-03-29T11:35:23.304Z,20.36
2019-03-29T11:36:23.292Z,19.94
2019-03-29T11:37:28.534Z,20.29
2019-03-29T11:38:23.264Z,20.21
2019-03-29T11:39:23.273Z,20.10
2019-03-29T11:40:23.250Z,20.34
2019-03-29T11:41:23.243Z,20.50
2019-03-29T11:42:23.251Z,20.93
2019-03-29T11:43:27.189Z,20.63
2019-03-29T11:44:23.197Z,20.60
2019-03-29T11:45:23.194Z,20.85
2019-03-29T11:46:23.220Z,21.20
2019-03-29T11:47:23.192Z,21.25
2019-03-29T11:48:23.168Z,21.56
2019-03-29T11:49:23.125Z,21.81
2019-03-29T11:50:23.206Z,21.47
2019-03-29T11:51:23.139Z,21.59
2019-03-29T11:52:23.131Z,20.85
2019-03-29T11:53:23.186Z,20.78
2019-03-29T11:54:23.140Z,20.44
2019-03-29T11:55:23.145Z,20.83
2019-03-29T11:56:23.172Z,20.22
2019-03-29T11:57:23.108Z,20.10
2019-03-29T11:58:23.064Z,20.26
2019-03-29T11:59:23.091Z,19.90
2019-03-29T12:00:23.078Z,20.10
2019-03-29T12:01:23.029Z,19.92
2019-03-29T12:02:31.029Z,19.77
2019-03-29T12:03:24.017Z,19.57
2019-03-29T12:04:22.981Z,18.83
2019-03-29T12:05:22.967Z,18.26
2019-03-29T12:06:22.983Z,18.00
2019-03-29T12:07:22.973Z,17.90
2019-03-29T12:08:22.998Z,17.68
2019-03-29T12:09:22.920Z,17.88
2019-03-29T12:10:22.952Z,17.72
2019-03-29T12:11:22.940Z,17.57
2019-03-29T12:12:22.968Z,17.59
2019-03-29T12:13:22.886Z,17.65
2019-03-29T12:14:22.893Z,17.78
2019-03-29T12:15:22.860Z,17.95
2019-03-29T12:16:22.891Z,18.09
2019-03-29T12:17:22.859Z,18.16
2019-03-29T12:18:22.859Z,18.06
2019-03-29T12:19:22.857Z,18.03
2019-03-29T12:20:22.918Z,18.00
2019-03-29T12:21:22.856Z,17.88
2019-03-29T12:22:23.066Z,17.47
2019-03-29T12:23:22.979Z,17.38
2019-03-29T12:24:22.967Z,17.53
2019-03-29T12:25:22.841Z,17.78
2019-03-29T12:26:22.812Z,17.76
2019-03-29T12:27:22.875Z,17.75
2019-03-29T12:28:22.768Z,17.57
2019-03-29T12:29:22.815Z,17.60
2019-03-29T12:30:31.395Z,17.49
2019-03-29T12:31:23.713Z,17.56
2019-03-29T12:32:22.714Z,17.65
2019-03-29T12:33:22.781Z,17.66
2019-03-29T12:34:22.705Z,17.78
2019-03-29T12:35:22.731Z,17.80
2019-03-29T12:36:22.697Z,17.73
2019-03-29T12:37:22.687Z,17.42
2019-03-29T12:38:22.714Z,17.46
2019-03-29T12:39:22.676Z,17.35
2019-03-29T12:40:22.701Z,17.24
2019-03-29T12:41:22.613Z,17.20
2019-03-29T12:42:22.766Z,17.27
2019-03-29T12:43:22.590Z,17.34
2019-03-29T12:44:22.571Z,17.47
2019-03-29T12:45:22.670Z,17.34
2019-03-29T12:46:22.531Z,17.24
2019-03-29T12:47:22.658Z,17.34
2019-03-29T12:48:22.510Z,17.24
2019-03-29T12:49:22.505Z,17.02
2019-03-29T12:50:22.555Z,17.05
2019-03-29T12:51:22.493Z,16.86
2019-03-29T12:52:22.569Z,16.79
2019-03-29T12:53:22.511Z,16.83
2019-03-29T12:54:22.501Z,17.02
2019-03-29T12:55:22.558Z,17.19
2019-03-29T12:56:23.299Z,17.38
2019-03-29T12:57:22.550Z,17.56
2019-03-29T12:58:22.399Z,17.56
2019-03-29T12:59:22.407Z,17.47
2019-03-29T13:00:22.436Z,17.42
2019-03-29T13:01:22.442Z,17.23
2019-03-29T13:02:22.415Z,17.23
2019-03-29T13:03:22.365Z,17.23
2019-03-29T13:04:22.422Z,17.23